sensor_id;sensor_type;location;lat;lon;timestamp;P1;durP1;ratioP1;P2;durP2;ratioP2
3121;SDS011;1571;52.524;14.104;2024-03-29T00:00:06;0.40;;;0.40;;
3121;SDS011;1571;52.524;14.104;2024-03-29T00:02:39;0.50;;;0.50;;
3121;SDS011;1571;52.524;14.104;2024-03-29T00:05:06;0.80;;;0.60;;
3121;SDS011;1571;52.524;14.104;2024-03-29T00:07:33;0.40;;;0.40;;
3121;SDS011;1571;52.524;14.104;2024-03-29T00:09:59;0.87;;;0.40;;
3121;SDS011;1571;52.524;14.104;2024-03-29T00:12:25;0.73;;;0.50;;
3121;SDS011;1571;52.524;14.104;2024-03-29T00:14:52;2.23;;;0.50;;
3121;SDS011;1571;52.524;14.104;2024-03-29T00:17:18;1.23;;;0.60;;
3121;SDS011;1571;52.524;14.104;2024-03-29T00:19:46;1.47;;;0.40;;
3121;SDS011;1571;52.524;14.104;2024-03-29T00:22:12;0.40;;;0.40;;
3121;SDS011;1571;52.524;14.104;2024-03-29T00:24:39;0.40;;;0.40;;
3121;SDS011;1571;52.524;14.104;2024-03-29T00:27:05;0.50;;;0.50;;
3121;SDS011;1571;52.524;14.104;2024-03-29T00:29:31;1.07;;;0.40;;
3121;SDS011;1571;52.524;14.104;2024-03-29T00:31:58;0.40;;;0.40;;
3121;SDS011;1571;52.524;14.104;2024-03-29T00:34:25;0.87;;;0.50;;
3121;SDS011;1571;52.524;14.104;2024-03-29T00:36:52;0.43;;;0.43;;
3121;SDS011;1571;52.524;14.104;2024-03-29T00:39:19;0.60;;;0.40;;
3121;SDS011;1571;52.524;14.104;2024-03-29T00:41:45;1.57;;;0.40;;
3121;SDS011;1571;52.524;14.104;2024-03-29T00:44:11;0.80;;;0.43;;
3121;SDS011;1571;52.524;14.104;2024-03-29T00:46:38;3.50;;;0.50;;
3121;SDS011;1571;52.524;14.104;2024-03-29T00:49:04;0.77;;;0.40;;
3121;SDS011;1571;52.524;14.104;2024-03-29T00:51:30;0.77;;;0.50;;
3121;SDS011;1571;52.524;14.104;2024-03-29T00:53:58;2.20;;;0.50;;
3121;SDS011;1571;52.524;14.104;2024-03-29T00:56:24;0.40;;;0.40;;
3121;SDS011;1571;52.524;14.104;2024-03-29T00:58:51;0.60;;;0.40;;
3121;SDS011;1571;52.524;14.104;2024-03-29T01:01:17;0.50;;;0.40;;
3121;SDS011;1571;52.524;14.104;2024-03-29T01:03:44;1.33;;;0.50;;
3121;SDS011;1571;52.524;14.104;2024-03-29T01:06:10;0.40;;;0.40;;
3121;SDS011;1571;52.524;14.104;2024-03-29T01:08:36;0.80;;;0.43;;
3121;SDS011;1571;52.524;14.104;2024-03-29T01:11:04;1.70;;;0.40;;
3121;SDS011;1571;52.524;14.104;2024-03-29T01:13:31;0.40;;;0.40;;
3121;SDS011;1571;52.524;14.104;2024-03-29T01:15:57;0.30;;;0.30;;
3121;SDS011;1571;52.524;14.104;2024-03-29T01:18:24;0.70;;;0.70;;
3121;SDS011;1571;52.524;14.104;2024-03-29T01:20:50;1.53;;;0.50;;
3121;SDS011;1571;52.524;14.104;2024-03-29T01:23:16;1.07;;;0.50;;
3121;SDS011;1571;52.524;14.104;2024-03-29T01:25:43;3.40;;;0.40;;
3121;SDS011;1571;52.524;14.104;2024-03-29T01:28:10;0.50;;;0.50;;
3121;SDS011;1571;52.524;14.104;2024-03-29T01:30:37;1.20;;;0.50;;
3121;SDS011;1571;52.524;14.104;2024-03-29T01:33:03;0.40;;;0.40;;
3121;SDS011;1571;52.524;14.104;2024-03-29T01:35:30;0.40;;;0.40;;
3121;SDS011;1571;52.524;14.104;2024-03-29T01:37:56;0.70;;;0.70;;
3121;SDS011;1571;52.524;14.104;2024-03-29T01:40:23;0.50;;;0.50;;
3121;SDS011;1571;52.524;14.104;2024-03-29T01:42:52;0.73;;;0.50;;
3121;SDS011;1571;52.524;14.104;2024-03-29T01:45:20;0.40;;;0.40;;
3121;SDS011;1571;52.524;14.104;2024-03-29T01:47:47;0.40;;;0.40;;
3121;SDS011;1571;52.524;14.104;2024-03-29T01:50:15;1.73;;;0.47;;
3121;SDS011;1571;52.524;14.104;2024-03-29T01:52:42;0.37;;;0.37;;
3121;SDS011;1571;52.524;14.104;2024-03-29T01:55:10;0.57;;;0.50;;
3121;SDS011;1571;52.524;14.104;2024-03-29T01:57:37;0.53;;;0.40;;
3121;SDS011;1571;52.524;14.104;2024-03-29T02:00:07;0.40;;;0.40;;
3121;SDS011;1571;52.524;14.104;2024-03-29T02:02:37;0.63;;;0.40;;
3121;SDS011;1571;52.524;14.104;2024-03-29T02:05:04;0.57;;;0.57;;
3121;SDS011;1571;52.524;14.104;2024-03-29T02:07:32;0.90;;;0.40;;
3121;SDS011;1571;52.524;14.104;2024-03-29T02:09:59;0.40;;;0.40;;
3121;SDS011;1571;52.524;14.104;2024-03-29T02:12:26;1.37;;;0.40;;
3121;SDS011;1571;52.524;14.104;2024-03-29T02:14:53;1.37;;;0.47;;
3121;SDS011;1571;52.524;14.104;2024-03-29T02:17:20;0.73;;;0.40;;
3121;SDS011;1571;52.524;14.104;2024-03-29T02:19:49;0.50;;;0.40;;
3121;SDS011;1571;52.524;14.104;2024-03-29T02:22:16;0.70;;;0.50;;
3121;SDS011;1571;52.524;14.104;2024-03-29T02:24:47;0.50;;;0.40;;
3121;SDS011;1571;52.524;14.104;2024-03-29T02:27:14;0.60;;;0.40;;
3121;SDS011;1571;52.524;14.104;2024-03-29T02:29:43;0.60;;;0.50;;
3121;SDS011;1571;52.524;14.104;2024-03-29T02:32:10;1.00;;;0.40;;
3121;SDS011;1571;52.524;14.104;2024-03-29T02:34:37;0.90;;;0.50;;
3121;SDS011;1571;52.524;14.104;2024-03-29T02:37:05;2.00;;;0.60;;
3121;SDS011;1571;52.524;14.104;2024-03-29T02:39:32;1.13;;;0.50;;
3121;SDS011;1571;52.524;14.104;2024-03-29T02:42:01;0.40;;;0.40;;
3121;SDS011;1571;52.524;14.104;2024-03-29T02:44:28;0.60;;;0.60;;
3121;SDS011;1571;52.524;14.104;2024-03-29T02:46:55;1.13;;;0.60;;
3121;SDS011;1571;52.524;14.104;2024-03-29T02:49:23;0.60;;;0.50;;
3121;SDS011;1571;52.524;14.104;2024-03-29T02:51:49;1.07;;;0.57;;
3121;SDS011;1571;52.524;14.104;2024-03-29T02:54:18;0.60;;;0.60;;
3121;SDS011;1571;52.524;14.104;2024-03-29T02:56:44;0.80;;;0.63;;
3121;SDS011;1571;52.524;14.104;2024-03-29T02:59:13;2.13;;;0.60;;
3121;SDS011;1571;52.524;14.104;2024-03-29T03:01:39;2.33;;;0.70;;
3121;SDS011;1571;52.524;14.104;2024-03-29T03:04:07;0.93;;;0.50;;
3121;SDS011;1571;52.524;14.104;2024-03-29T03:06:33;0.67;;;0.67;;
3121;SDS011;1571;52.524;14.104;2024-03-29T03:09:00;0.70;;;0.60;;
3121;SDS011;1571;52.524;14.104;2024-03-29T03:11:45;0.93;;;0.70;;
3121;SDS011;1571;52.524;14.104;2024-03-29T03:14:13;0.90;;;0.50;;
3121;SDS011;1571;52.524;14.104;2024-03-29T03:16:41;0.60;;;0.60;;
3121;SDS011;1571;52.524;14.104;2024-03-29T03:19:08;0.90;;;0.67;;
3121;SDS011;1571;52.524;14.104;2024-03-29T03:21:34;1.13;;;0.70;;
3121;SDS011;1571;52.524;14.104;2024-03-29T03:24:02;2.30;;;0.87;;
3121;SDS011;1571;52.524;14.104;2024-03-29T03:26:30;9.13;;;0.63;;
3121;SDS011;1571;52.524;14.104;2024-03-29T03:28:57;1.00;;;0.90;;
3121;SDS011;1571;52.524;14.104;2024-03-29T03:31:25;0.87;;;0.83;;
3121;SDS011;1571;52.524;14.104;2024-03-29T03:33:52;1.03;;;0.90;;
3121;SDS011;1571;52.524;14.104;2024-03-29T03:36:18;1.77;;;0.70;;
3121;SDS011;1571;52.524;14.104;2024-03-29T03:38:46;1.80;;;0.80;;
3121;SDS011;1571;52.524;14.104;2024-03-29T03:41:12;0.57;;;0.57;;
3121;SDS011;1571;52.524;14.104;2024-03-29T03:43:39;1.10;;;1.10;;
3121;SDS011;1571;52.524;14.104;2024-03-29T03:46:05;0.60;;;0.60;;
3121;SDS011;1571;52.524;14.104;2024-03-29T03:48:34;0.83;;;0.67;;
3121;SDS011;1571;52.524;14.104;2024-03-29T03:51:00;1.20;;;1.10;;
3121;SDS011;1571;52.524;14.104;2024-03-29T03:53:27;0.87;;;0.70;;
3121;SDS011;1571;52.524;14.104;2024-03-29T03:55:54;0.90;;;0.60;;
3121;SDS011;1571;52.524;14.104;2024-03-29T03:58:21;0.60;;;0.60;;
3121;SDS011;1571;52.524;14.104;2024-03-29T04:00:47;0.50;;;0.50;;
3121;SDS011;1571;52.524;14.104;2024-03-29T04:03:14;1.80;;;0.60;;
3121;SDS011;1571;52.524;14.104;2024-03-29T04:05:42;0.70;;;0.70;;
3121;SDS011;1571;52.524;14.104;2024-03-29T04:08:09;0.80;;;0.80;;
3121;SDS011;1571;52.524;14.104;2024-03-29T04:10:37;1.43;;;0.80;;
3121;SDS011;1571;52.524;14.104;2024-03-29T04:13:05;0.67;;;0.67;;
3121;SDS011;1571;52.524;14.104;2024-03-29T04:15:31;1.43;;;1.00;;
3121;SDS011;1571;52.524;14.104;2024-03-29T04:17:59;1.03;;;0.77;;
3121;SDS011;1571;52.524;14.104;2024-03-29T04:20:25;2.23;;;0.80;;
3121;SDS011;1571;52.524;14.104;2024-03-29T04:22:54;2.10;;;0.90;;
3121;SDS011;1571;52.524;14.104;2024-03-29T04:25:20;0.60;;;0.60;;
3121;SDS011;1571;52.524;14.104;2024-03-29T04:27:48;1.00;;;0.83;;
3121;SDS011;1571;52.524;14.104;2024-03-29T04:30:14;0.93;;;0.60;;
3121;SDS011;1571;52.524;14.104;2024-03-29T04:32:41;0.80;;;0.80;;
3121;SDS011;1571;52.524;14.104;2024-03-29T04:35:08;2.70;;;1.50;;
3121;SDS011;1571;52.524;14.104;2024-03-29T04:37:35;1.23;;;0.60;;
3121;SDS011;1571;52.524;14.104;2024-03-29T04:40:04;0.70;;;0.70;;
3121;SDS011;1571;52.524;14.104;2024-03-29T04:42:32;6.40;;;1.30;;
3121;SDS011;1571;52.524;14.104;2024-03-29T04:44:59;0.97;;;0.70;;
3121;SDS011;1571;52.524;14.104;2024-03-29T04:47:27;2.57;;;1.00;;
3121;SDS011;1571;52.524;14.104;2024-03-29T04:49:54;0.80;;;0.80;;
3121;SDS011;1571;52.524;14.104;2024-03-29T04:52:21;0.80;;;0.70;;
3121;SDS011;1571;52.524;14.104;2024-03-29T04:54:50;0.87;;;0.87;;
3121;SDS011;1571;52.524;14.104;2024-03-29T04:57:18;1.10;;;0.73;;
3121;SDS011;1571;52.524;14.104;2024-03-29T04:59:45;0.93;;;0.93;;
3121;SDS011;1571;52.524;14.104;2024-03-29T05:02:13;1.07;;;0.80;;
3121;SDS011;1571;52.524;14.104;2024-03-29T05:04:40;1.80;;;0.70;;
3121;SDS011;1571;52.524;14.104;2024-03-29T05:07:08;3.23;;;0.80;;
3121;SDS011;1571;52.524;14.104;2024-03-29T05:09:36;0.80;;;0.80;;
3121;SDS011;1571;52.524;14.104;2024-03-29T05:12:03;1.53;;;0.70;;
3121;SDS011;1571;52.524;14.104;2024-03-29T05:14:32;2.60;;;1.10;;
3121;SDS011;1571;52.524;14.104;2024-03-29T05:16:59;1.40;;;1.30;;
3121;SDS011;1571;52.524;14.104;2024-03-29T05:19:28;1.33;;;1.23;;
3121;SDS011;1571;52.524;14.104;2024-03-29T05:21:55;2.17;;;0.97;;
3121;SDS011;1571;52.524;14.104;2024-03-29T05:24:22;0.93;;;0.93;;
3121;SDS011;1571;52.524;14.104;2024-03-29T05:26:49;0.90;;;0.80;;
3121;SDS011;1571;52.524;14.104;2024-03-29T05:29:17;0.90;;;0.80;;
3121;SDS011;1571;52.524;14.104;2024-03-29T05:31:45;2.60;;;0.90;;
3121;SDS011;1571;52.524;14.104;2024-03-29T05:34:12;0.73;;;0.73;;
3121;SDS011;1571;52.524;14.104;2024-03-29T05:36:40;1.33;;;0.90;;
3121;SDS011;1571;52.524;14.104;2024-03-29T05:39:07;1.17;;;0.90;;
3121;SDS011;1571;52.524;14.104;2024-03-29T05:41:35;0.93;;;0.93;;
3121;SDS011;1571;52.524;14.104;2024-03-29T05:44:03;0.60;;;0.60;;
3121;SDS011;1571;52.524;14.104;2024-03-29T05:46:31;1.50;;;1.07;;
3121;SDS011;1571;52.524;14.104;2024-03-29T05:49:00;1.77;;;0.80;;
3121;SDS011;1571;52.524;14.104;2024-03-29T05:51:27;2.20;;;0.77;;
3121;SDS011;1571;52.524;14.104;2024-03-29T05:53:54;0.90;;;0.90;;
3121;SDS011;1571;52.524;14.104;2024-03-29T05:56:22;0.70;;;0.70;;
3121;SDS011;1571;52.524;14.104;2024-03-29T05:58:49;3.43;;;0.90;;
3121;SDS011;1571;52.524;14.104;2024-03-29T06:01:16;0.67;;;0.67;;
3121;SDS011;1571;52.524;14.104;2024-03-29T06:03:44;3.13;;;0.60;;
3121;SDS011;1571;52.524;14.104;2024-03-29T06:06:12;0.90;;;0.73;;
3121;SDS011;1571;52.524;14.104;2024-03-29T06:08:43;0.70;;;0.70;;
3121;SDS011;1571;52.524;14.104;2024-03-29T06:11:10;1.57;;;0.80;;
3121;SDS011;1571;52.524;14.104;2024-03-29T06:13:37;0.90;;;0.70;;
3121;SDS011;1571;52.524;14.104;2024-03-29T06:16:24;0.97;;;0.87;;
3121;SDS011;1571;52.524;14.104;2024-03-29T06:19:10;1.40;;;0.60;;
3121;SDS011;1571;52.524;14.104;2024-03-29T06:21:39;1.33;;;0.80;;
3121;SDS011;1571;52.524;14.104;2024-03-29T06:24:07;1.70;;;0.97;;
3121;SDS011;1571;52.524;14.104;2024-03-29T06:26:38;1.93;;;0.80;;
3121;SDS011;1571;52.524;14.104;2024-03-29T06:29:05;2.63;;;0.77;;
3121;SDS011;1571;52.524;14.104;2024-03-29T06:31:35;1.87;;;0.60;;
3121;SDS011;1571;52.524;14.104;2024-03-29T06:34:02;0.70;;;0.70;;
3121;SDS011;1571;52.524;14.104;2024-03-29T06:36:29;2.83;;;0.73;;
3121;SDS011;1571;52.524;14.104;2024-03-29T06:38:58;0.63;;;0.63;;
3121;SDS011;1571;52.524;14.104;2024-03-29T06:41:25;3.27;;;1.17;;
3121;SDS011;1571;52.524;14.104;2024-03-29T06:43:52;1.07;;;0.80;;
3121;SDS011;1571;52.524;14.104;2024-03-29T06:46:20;0.80;;;0.77;;
3121;SDS011;1571;52.524;14.104;2024-03-29T06:48:47;0.73;;;0.60;;
3121;SDS011;1571;52.524;14.104;2024-03-29T06:51:15;0.57;;;0.57;;
3121;SDS011;1571;52.524;14.104;2024-03-29T06:53:42;0.70;;;0.70;;
3121;SDS011;1571;52.524;14.104;2024-03-29T06:56:11;1.53;;;0.80;;
3121;SDS011;1571;52.524;14.104;2024-03-29T06:58:38;1.27;;;0.93;;
3121;SDS011;1571;52.524;14.104;2024-03-29T07:01:05;1.10;;;0.70;;
3121;SDS011;1571;52.524;14.104;2024-03-29T07:03:33;1.97;;;1.20;;
3121;SDS011;1571;52.524;14.104;2024-03-29T07:06:00;1.23;;;0.70;;
3121;SDS011;1571;52.524;14.104;2024-03-29T07:08:28;0.63;;;0.63;;
3121;SDS011;1571;52.524;14.104;2024-03-29T07:10:59;4.00;;;0.60;;
3121;SDS011;1571;52.524;14.104;2024-03-29T07:13:28;0.60;;;0.60;;
3121;SDS011;1571;52.524;14.104;2024-03-29T07:15:57;1.37;;;0.70;;
3121;SDS011;1571;52.524;14.104;2024-03-29T07:18:24;2.20;;;0.60;;
3121;SDS011;1571;52.524;14.104;2024-03-29T07:20:52;0.90;;;0.63;;
3121;SDS011;1571;52.524;14.104;2024-03-29T07:23:19;0.90;;;0.50;;
3121;SDS011;1571;52.524;14.104;2024-03-29T07:25:57;0.80;;;0.60;;
3121;SDS011;1571;52.524;14.104;2024-03-29T07:28:25;0.80;;;0.70;;
3121;SDS011;1571;52.524;14.104;2024-03-29T07:30:53;2.30;;;0.60;;
3121;SDS011;1571;52.524;14.104;2024-03-29T07:33:21;0.60;;;0.60;;
3121;SDS011;1571;52.524;14.104;2024-03-29T07:35:52;0.70;;;0.57;;
3121;SDS011;1571;52.524;14.104;2024-03-29T07:38:19;1.73;;;0.50;;
3121;SDS011;1571;52.524;14.104;2024-03-29T07:40:47;0.60;;;0.60;;
3121;SDS011;1571;52.524;14.104;2024-03-29T07:43:14;1.23;;;0.60;;
3121;SDS011;1571;52.524;14.104;2024-03-29T07:45:42;3.03;;;0.60;;
3121;SDS011;1571;52.524;14.104;2024-03-29T07:48:12;1.13;;;0.70;;
3121;SDS011;1571;52.524;14.104;2024-03-29T07:50:40;0.83;;;0.50;;
3121;SDS011;1571;52.524;14.104;2024-03-29T07:53:07;1.17;;;0.60;;
3121;SDS011;1571;52.524;14.104;2024-03-29T07:55:35;0.97;;;0.60;;
3121;SDS011;1571;52.524;14.104;2024-03-29T07:58:04;0.50;;;0.50;;
3121;SDS011;1571;52.524;14.104;2024-03-29T08:00:32;1.10;;;0.60;;
3121;SDS011;1571;52.524;14.104;2024-03-29T08:03:00;0.70;;;0.70;;
3121;SDS011;1571;52.524;14.104;2024-03-29T08:05:28;3.03;;;0.60;;
3121;SDS011;1571;52.524;14.104;2024-03-29T08:07:55;1999.90;;;999.90;;
3121;SDS011;1571;52.524;14.104;2024-03-29T08:10:23;1999.90;;;999.90;;
3121;SDS011;1571;52.524;14.104;2024-03-29T08:12:50;1999.90;;;999.90;;
3121;SDS011;1571;52.524;14.104;2024-03-29T08:15:17;1999.90;;;999.90;;
3121;SDS011;1571;52.524;14.104;2024-03-29T08:17:46;1999.90;;;999.90;;
3121;SDS011;1571;52.524;14.104;2024-03-29T08:20:13;1999.90;;;999.90;;
3121;SDS011;1571;52.524;14.104;2024-03-29T08:22:42;1999.90;;;999.90;;
3121;SDS011;1571;52.524;14.104;2024-03-29T08:25:09;1999.90;;;999.90;;
3121;SDS011;1571;52.524;14.104;2024-03-29T08:27:37;1999.90;;;999.90;;
3121;SDS011;1571;52.524;14.104;2024-03-29T08:30:05;1999.90;;;999.90;;
3121;SDS011;1571;52.524;14.104;2024-03-29T08:32:33;1999.90;;;999.90;;
3121;SDS011;1571;52.524;14.104;2024-03-29T08:35:00;1999.90;;;999.90;;
3121;SDS011;1571;52.524;14.104;2024-03-29T08:37:28;1999.90;;;999.90;;
3121;SDS011;1571;52.524;14.104;2024-03-29T08:39:57;1999.90;;;999.90;;
3121;SDS011;1571;52.524;14.104;2024-03-29T08:42:25;1999.90;;;999.90;;
3121;SDS011;1571;52.524;14.104;2024-03-29T08:44:52;1999.90;;;999.90;;
3121;SDS011;1571;52.524;14.104;2024-03-29T08:47:20;1999.90;;;999.90;;
3121;SDS011;1571;52.524;14.104;2024-03-29T08:49:47;1999.90;;;999.90;;
3121;SDS011;1571;52.524;14.104;2024-03-29T08:52:14;1999.90;;;999.90;;
3121;SDS011;1571;52.524;14.104;2024-03-29T08:54:43;1999.90;;;999.90;;
3121;SDS011;1571;52.524;14.104;2024-03-29T08:57:12;1999.90;;;999.90;;
3121;SDS011;1571;52.524;14.104;2024-03-29T08:59:39;1999.90;;;999.90;;
3121;SDS011;1571;52.524;14.104;2024-03-29T09:02:07;1999.90;;;999.90;;
3121;SDS011;1571;52.524;14.104;2024-03-29T09:04:34;1999.90;;;999.90;;
3121;SDS011;1571;52.524;14.104;2024-03-29T09:07:01;1999.90;;;999.90;;
3121;SDS011;1571;52.524;14.104;2024-03-29T09:09:29;1999.90;;;999.90;;
3121;SDS011;1571;52.524;14.104;2024-03-29T09:11:57;1999.90;;;999.90;;
3121;SDS011;1571;52.524;14.104;2024-03-29T09:14:26;1999.90;;;999.90;;
3121;SDS011;1571;52.524;14.104;2024-03-29T09:16:53;1999.90;;;999.90;;
3121;SDS011;1571;52.524;14.104;2024-03-29T09:19:21;1999.90;;;999.90;;
3121;SDS011;1571;52.524;14.104;2024-03-29T09:21:49;1999.90;;;999.90;;
3121;SDS011;1571;52.524;14.104;2024-03-29T09:24:17;1999.90;;;999.90;;
3121;SDS011;1571;52.524;14.104;2024-03-29T09:26:45;1999.90;;;999.90;;
3121;SDS011;1571;52.524;14.104;2024-03-29T09:29:12;1999.90;;;999.90;;
3121;SDS011;1571;52.524;14.104;2024-03-29T09:31:41;1999.90;;;999.90;;
3121;SDS011;1571;52.524;14.104;2024-03-29T09:34:08;1999.90;;;999.90;;
3121;SDS011;1571;52.524;14.104;2024-03-29T09:36:35;1999.90;;;999.90;;
3121;SDS011;1571;52.524;14.104;2024-03-29T09:39:03;1999.90;;;999.90;;
3121;SDS011;1571;52.524;14.104;2024-03-29T09:41:30;1999.90;;;999.90;;
3121;SDS011;1571;52.524;14.104;2024-03-29T09:44:00;1999.90;;;999.90;;
3121;SDS011;1571;52.524;14.104;2024-03-29T09:46:30;1999.90;;;999.90;;
3121;SDS011;1571;52.524;14.104;2024-03-29T09:48:59;1999.90;;;999.90;;
3121;SDS011;1571;52.524;14.104;2024-03-29T09:51:29;0.57;;;0.50;;
3121;SDS011;1571;52.524;14.104;2024-03-29T09:53:56;1.30;;;0.40;;
3121;SDS011;1571;52.524;14.104;2024-03-29T09:56:26;0.60;;;0.33;;
3121;SDS011;1571;52.524;14.104;2024-03-29T09:58:53;0.70;;;0.40;;
3121;SDS011;1571;52.524;14.104;2024-03-29T10:01:21;0.50;;;0.40;;
3121;SDS011;1571;52.524;14.104;2024-03-29T10:03:49;2.30;;;0.60;;
3121;SDS011;1571;52.524;14.104;2024-03-29T10:06:18;0.60;;;0.53;;
3121;SDS011;1571;52.524;14.104;2024-03-29T10:08:46;0.60;;;0.50;;
3121;SDS011;1571;52.524;14.104;2024-03-29T10:11:14;0.60;;;0.40;;
3121;SDS011;1571;52.524;14.104;2024-03-29T10:13:44;0.40;;;0.40;;
3121;SDS011;1571;52.524;14.104;2024-03-29T10:16:11;0.70;;;0.60;;
3121;SDS011;1571;52.524;14.104;2024-03-29T10:18:40;1.00;;;0.40;;
3121;SDS011;1571;52.524;14.104;2024-03-29T10:21:09;2.03;;;0.50;;
3121;SDS011;1571;52.524;14.104;2024-03-29T10:23:38;1.33;;;0.50;;
3121;SDS011;1571;52.524;14.104;2024-03-29T10:26:07;0.63;;;0.50;;
3121;SDS011;1571;52.524;14.104;2024-03-29T10:28:36;3.03;;;0.50;;
3121;SDS011;1571;52.524;14.104;2024-03-29T10:31:04;1.43;;;0.50;;
3121;SDS011;1571;52.524;14.104;2024-03-29T10:33:33;1.47;;;0.50;;
3121;SDS011;1571;52.524;14.104;2024-03-29T10:36:01;0.40;;;0.40;;
3121;SDS011;1571;52.524;14.104;2024-03-29T10:38:30;2.20;;;0.50;;
3121;SDS011;1571;52.524;14.104;2024-03-29T10:40:59;0.60;;;0.60;;
3121;SDS011;1571;52.524;14.104;2024-03-29T10:43:29;1.90;;;0.50;;
3121;SDS011;1571;52.524;14.104;2024-03-29T10:45:56;0.57;;;0.50;;
3121;SDS011;1571;52.524;14.104;2024-03-29T10:48:26;1.43;;;0.40;;
3121;SDS011;1571;52.524;14.104;2024-03-29T10:50:54;0.40;;;0.40;;
3121;SDS011;1571;52.524;14.104;2024-03-29T10:53:23;0.50;;;0.40;;
3121;SDS011;1571;52.524;14.104;2024-03-29T10:55:53;1.43;;;0.40;;
3121;SDS011;1571;52.524;14.104;2024-03-29T10:58:22;0.60;;;0.50;;
3121;SDS011;1571;52.524;14.104;2024-03-29T11:00:53;0.93;;;0.50;;
3121;SDS011;1571;52.524;14.104;2024-03-29T11:03:25;1.40;;;0.60;;
3121;SDS011;1571;52.524;14.104;2024-03-29T11:06:00;0.40;;;0.30;;
3121;SDS011;1571;52.524;14.104;2024-03-29T11:08:31;0.53;;;0.50;;
3121;SDS011;1571;52.524;14.104;2024-03-29T11:11:04;1.23;;;0.40;;
3121;SDS011;1571;52.524;14.104;2024-03-29T11:13:33;0.40;;;0.40;;
3121;SDS011;1571;52.524;14.104;2024-03-29T11:16:04;0.60;;;0.40;;
3121;SDS011;1571;52.524;14.104;2024-03-29T11:18:32;2.37;;;0.43;;
3121;SDS011;1571;52.524;14.104;2024-03-29T11:21:00;0.50;;;0.50;;
3121;SDS011;1571;52.524;14.104;2024-03-29T11:23:32;0.50;;;0.50;;
3121;SDS011;1571;52.524;14.104;2024-03-29T11:25:59;0.30;;;0.30;;
3121;SDS011;1571;52.524;14.104;2024-03-29T11:28:28;0.93;;;0.43;;
3121;SDS011;1571;52.524;14.104;2024-03-29T11:31:00;1.70;;;0.40;;
3121;SDS011;1571;52.524;14.104;2024-03-29T11:33:31;0.57;;;0.40;;
3121;SDS011;1571;52.524;14.104;2024-03-29T11:36:06;0.50;;;0.50;;
3121;SDS011;1571;52.524;14.104;2024-03-29T11:38:37;1.80;;;0.70;;
3121;SDS011;1571;52.524;14.104;2024-03-29T11:41:05;1.17;;;0.60;;
3121;SDS011;1571;52.524;14.104;2024-03-29T11:43:33;0.90;;;0.50;;
3121;SDS011;1571;52.524;14.104;2024-03-29T11:46:04;0.60;;;0.50;;
3121;SDS011;1571;52.524;14.104;2024-03-29T11:48:32;0.80;;;0.60;;
3121;SDS011;1571;52.524;14.104;2024-03-29T11:51:00;0.50;;;0.50;;
3121;SDS011;1571;52.524;14.104;2024-03-29T11:53:29;0.70;;;0.63;;
3121;SDS011;1571;52.524;14.104;2024-03-29T11:55:57;1.23;;;0.50;;
3121;SDS011;1571;52.524;14.104;2024-03-29T11:58:25;1.37;;;0.50;;
3121;SDS011;1571;52.524;14.104;2024-03-29T12:00:53;0.50;;;0.50;;
3121;SDS011;1571;52.524;14.104;2024-03-29T12:03:24;0.40;;;0.40;;
3121;SDS011;1571;52.524;14.104;2024-03-29T12:05:53;1.17;;;0.40;;
3121;SDS011;1571;52.524;14.104;2024-03-29T12:08:24;2.30;;;0.40;;
3121;SDS011;1571;52.524;14.104;2024-03-29T12:10:52;0.60;;;0.43;;
3121;SDS011;1571;52.524;14.104;2024-03-29T12:13:19;0.40;;;0.40;;
3121;SDS011;1571;52.524;14.104;2024-03-29T12:15:46;0.40;;;0.40;;
3121;SDS011;1571;52.524;14.104;2024-03-29T12:18:14;1.17;;;0.30;;
3121;SDS011;1571;52.524;14.104;2024-03-29T12:20:43;0.40;;;0.40;;
3121;SDS011;1571;52.524;14.104;2024-03-29T12:23:15;0.60;;;0.33;;
3121;SDS011;1571;52.524;14.104;2024-03-29T12:25:43;3.13;;;0.40;;
3121;SDS011;1571;52.524;14.104;2024-03-29T12:28:11;0.40;;;0.30;;
3121;SDS011;1571;52.524;14.104;2024-03-29T12:30:40;1.27;;;0.40;;
3121;SDS011;1571;52.524;14.104;2024-03-29T12:33:10;0.50;;;0.37;;
3121;SDS011;1571;52.524;14.104;2024-03-29T12:35:40;1.93;;;0.50;;
3121;SDS011;1571;52.524;14.104;2024-03-29T12:38:10;0.40;;;0.37;;
3121;SDS011;1571;52.524;14.104;2024-03-29T12:40:40;0.80;;;0.40;;
3121;SDS011;1571;52.524;14.104;2024-03-29T12:43:09;1.10;;;0.40;;
3121;SDS011;1571;52.524;14.104;2024-03-29T12:45:38;57.40;;;51.10;;
3121;SDS011;1571;52.524;14.104;2024-03-29T12:48:12;0.40;;;0.30;;
3121;SDS011;1571;52.524;14.104;2024-03-29T12:50:40;0.57;;;0.40;;
3121;SDS011;1571;52.524;14.104;2024-03-29T13:11:31;81.63;;;62.13;;
3121;SDS011;1571;52.524;14.104;2024-03-29T13:18:18;0.87;;;0.60;;
3121;SDS011;1571;52.524;14.104;2024-03-29T13:20:46;1.40;;;0.60;;
3121;SDS011;1571;52.524;14.104;2024-03-29T13:23:13;2.73;;;0.40;;
3121;SDS011;1571;52.524;14.104;2024-03-29T13:25:42;0.70;;;0.50;;
3121;SDS011;1571;52.524;14.104;2024-03-29T13:28:10;0.60;;;0.50;;
3121;SDS011;1571;52.524;14.104;2024-03-29T13:30:38;1.00;;;0.40;;
3121;SDS011;1571;52.524;14.104;2024-03-29T13:33:09;910.57;;;434.10;;
3121;SDS011;1571;52.524;14.104;2024-03-29T13:35:36;0.50;;;0.50;;
3121;SDS011;1571;52.524;14.104;2024-03-29T13:38:04;461.23;;;164.63;;
3121;SDS011;1571;52.524;14.104;2024-03-29T13:40:31;0.93;;;0.40;;
3121;SDS011;1571;52.524;14.104;2024-03-29T13:43:00;0.80;;;0.50;;
3121;SDS011;1571;52.524;14.104;2024-03-29T13:45:28;1.23;;;0.40;;
3121;SDS011;1571;52.524;14.104;2024-03-29T13:47:55;2.60;;;0.50;;
3121;SDS011;1571;52.524;14.104;2024-03-29T13:50:24;0.70;;;0.70;;
3121;SDS011;1571;52.524;14.104;2024-03-29T13:52:51;1.23;;;0.40;;
3121;SDS011;1571;52.524;14.104;2024-03-29T13:55:20;2.90;;;0.70;;
3121;SDS011;1571;52.524;14.104;2024-03-29T13:57:51;1.40;;;0.60;;
3121;SDS011;1571;52.524;14.104;2024-03-29T14:00:20;1.03;;;0.50;;
3121;SDS011;1571;52.524;14.104;2024-03-29T14:02:49;1.00;;;0.60;;
3121;SDS011;1571;52.524;14.104;2024-03-29T14:05:18;0.33;;;0.33;;
3121;SDS011;1571;52.524;14.104;2024-03-29T14:07:45;0.93;;;0.40;;
3121;SDS011;1571;52.524;14.104;2024-03-29T14:10:14;2.90;;;0.50;;
3121;SDS011;1571;52.524;14.104;2024-03-29T14:12:41;0.40;;;0.40;;
3121;SDS011;1571;52.524;14.104;2024-03-29T14:15:09;0.50;;;0.40;;
3121;SDS011;1571;52.524;14.104;2024-03-29T14:17:36;0.40;;;0.40;;
3121;SDS011;1571;52.524;14.104;2024-03-29T14:20:05;0.50;;;0.40;;
3121;SDS011;1571;52.524;14.104;2024-03-29T14:25:31;0.33;;;0.30;;
3121;SDS011;1571;52.524;14.104;2024-03-29T14:27:59;1.40;;;0.40;;
3121;SDS011;1571;52.524;14.104;2024-03-29T14:30:28;0.50;;;0.40;;
3121;SDS011;1571;52.524;14.104;2024-03-29T14:35:52;0.43;;;0.40;;
3121;SDS011;1571;52.524;14.104;2024-03-29T14:38:19;1.00;;;0.90;;
3121;SDS011;1571;52.524;14.104;2024-03-29T14:40:47;2.00;;;0.60;;
3121;SDS011;1571;52.524;14.104;2024-03-29T14:43:14;0.80;;;0.73;;
3121;SDS011;1571;52.524;14.104;2024-03-29T14:45:42;0.40;;;0.40;;
3121;SDS011;1571;52.524;14.104;2024-03-29T14:48:09;0.50;;;0.40;;
3121;SDS011;1571;52.524;14.104;2024-03-29T14:50:36;0.40;;;0.40;;
3121;SDS011;1571;52.524;14.104;2024-03-29T14:53:05;0.80;;;0.43;;
3121;SDS011;1571;52.524;14.104;2024-03-29T14:55:32;0.70;;;0.40;;
3121;SDS011;1571;52.524;14.104;2024-03-29T14:58:02;0.83;;;0.50;;
3121;SDS011;1571;52.524;14.104;2024-03-29T15:00:29;2.50;;;0.40;;
3121;SDS011;1571;52.524;14.104;2024-03-29T15:02:56;1.07;;;0.50;;
3121;SDS011;1571;52.524;14.104;2024-03-29T15:05:24;1.27;;;0.40;;
3121;SDS011;1571;52.524;14.104;2024-03-29T15:07:53;0.50;;;0.50;;
3121;SDS011;1571;52.524;14.104;2024-03-29T15:10:23;1.37;;;0.67;;
3121;SDS011;1571;52.524;14.104;2024-03-29T15:12:50;1.47;;;0.90;;
3121;SDS011;1571;52.524;14.104;2024-03-29T15:15:17;1.80;;;0.40;;
3121;SDS011;1571;52.524;14.104;2024-03-29T15:17:45;0.60;;;0.60;;
3121;SDS011;1571;52.524;14.104;2024-03-29T15:20:12;1.03;;;0.50;;
3121;SDS011;1571;52.524;14.104;2024-03-29T15:22:41;0.40;;;0.40;;
3121;SDS011;1571;52.524;14.104;2024-03-29T15:28:01;0.47;;;0.40;;